Time;durP1;ratioP1;P1;durP2;ratioP2;P2;SDS_P1;SDS_P2;PMS_P1;PMS_P2;Temp;Humidity;BMP_temperature;BMP_pressure;BME280_temperature;BME280_humidity;BME280_pressure;Samples;Min_cycle;Max_cycle;Signal;HPM_P1;HPM_P2
2023/06/19 00:00:00;;;;;;;12.05;10.70;;;;;;;-145.41;100.00;58600.66;5023921;28;20492;-72
2023/06/19 00:02:25;;;;;;;11.50;10.15;;;;;;;-145.41;100.00;58600.66;5027759;28;20488;-73
2023/06/19 00:04:51;;;;;;;11.55;10.35;;;;;;;-145.41;100.00;58600.66;5025126;28;20056;-72
2023/06/19 00:07:16;;;;;;;11.45;10.30;;;;;;;-145.41;100.00;58600.66;5025091;28;20129;-72
2023/06/19 00:09:41;;;;;;;12.32;11.02;;;;;;;-145.41;100.00;58600.66;5030891;28;20029;-72
2023/06/19 00:12:07;;;;;;;10.50;9.40;;;;;;;-145.41;100.00;58600.66;5025289;28;20145;-72
2023/06/19 00:14:32;;;;;;;13.70;10.95;;;;;;;-145.41;100.00;58600.66;5025976;28;20489;-72
2023/06/19 00:17:00;;;;;;;10.75;9.75;;;;;;;-145.41;100.00;58600.66;5006038;28;20523;-72
2023/06/19 00:19:26;;;;;;;10.75;9.68;;;;;;;-145.41;100.00;58600.66;5025475;28;20091;-72
2023/06/19 00:21:51;;;;;;;10.30;8.98;;;;;;;-145.41;100.00;58600.66;5028441;28;20033;-72
2023/06/19 00:24:16;;;;;;;12.00;10.80;;;;;;;-145.41;100.00;58600.66;5026822;28;20041;-73
2023/06/19 00:26:42;;;;;;;11.20;10.00;;;;;;;-145.41;100.00;58600.66;5030251;28;20047;-72
2023/06/19 00:29:07;;;;;;;12.27;10.82;;;;;;;-145.41;100.00;58600.66;5007811;28;20108;-72
2023/06/19 00:31:33;;;;;;;11.98;10.73;;;;;;;-145.41;100.00;58600.66;5026675;28;20408;-72
2023/06/19 00:33:58;;;;;;;11.68;10.52;;;;;;;-145.41;100.00;58600.66;5022237;28;20557;-72
2023/06/19 00:36:25;;;;;;;12.18;10.98;;;;;;;-145.41;100.00;58600.66;5024414;28;20065;-72
2023/06/19 00:38:51;;;;;;;11.55;10.35;;;;;;;-145.41;100.00;58600.66;5012911;28;20563;-72
2023/06/19 00:41:17;;;;;;;13.77;11.43;;;;;;;-145.41;100.00;58600.66;5018699;28;20141;-72
2023/06/19 00:43:43;;;;;;;12.57;11.25;;;;;;;-145.41;100.00;58600.66;5004007;28;20128;-72
2023/06/19 00:46:09;;;;;;;12.48;11.18;;;;;;;-145.41;100.00;58600.66;5025448;28;20064;-72
2023/06/19 00:48:34;;;;;;;13.02;11.73;;;;;;;-145.41;100.00;58600.66;5006367;28;20551;-72
2023/06/19 00:51:00;;;;;;;14.00;12.50;;;;;;;-145.41;100.00;58600.66;5026868;28;20040;-72
2023/06/19 00:53:26;;;;;;;12.57;11.35;;;;;;;-145.41;100.00;58600.66;5023770;28;20039;-72
2023/06/19 00:55:54;;;;;;;12.57;11.32;;;;;;;-145.41;100.00;58600.66;5026517;28;20025;-72
2023/06/19 00:58:21;;;;;;;13.13;11.88;;;;;;;-145.41;100.00;58600.66;5024398;28;20032;-72
2023/06/19 01:00:47;;;;;;;12.15;10.95;;;;;;;-145.41;100.00;58600.66;5025003;28;20044;-73
2023/06/19 01:03:13;;;;;;;12.95;11.65;;;;;;;-145.41;100.00;58600.66;5004558;28;20084;-72
2023/06/19 01:05:38;;;;;;;12.23;11.00;;;;;;;-145.41;100.00;58600.66;5008307;28;20503;-72
2023/06/19 01:08:17;;;;;;;12.10;10.93;;;;;;;-145.41;100.00;58600.66;5025236;28;20104;-72
2023/06/19 01:10:55;;;;;;;12.38;11.20;;;;;;;-145.41;100.00;58600.66;5019394;28;20088;-72
2023/06/19 01:13:38;;;;;;;12.30;11.05;;;;;;;-145.41;100.00;58600.66;5024281;28;20432;-72
2023/06/19 01:16:05;;;;;;;12.75;11.45;;;;;;;-145.41;100.00;58600.66;5027271;28;20029;-72
2023/06/19 01:18:31;;;;;;;12.63;11.32;;;;;;;-145.41;100.00;58600.66;5026606;28;20033;-72
2023/06/19 01:21:09;;;;;;;13.85;11.50;;;;;;;-145.41;100.00;58600.66;5004857;28;20042;-72
2023/06/19 01:23:35;;;;;;;12.65;11.00;;;;;;;-145.41;100.00;58600.66;5024009;28;20033;-72
2023/06/19 01:26:00;;;;;;;13.57;12.18;;;;;;;-145.41;100.00;58600.66;5028402;28;20044;-72
2023/06/19 01:28:28;;;;;;;12.13;10.93;;;;;;;-145.41;100.00;58600.66;5024002;28;20053;-72
2023/06/19 01:30:56;;;;;;;12.82;11.52;;;;;;;-145.41;100.00;58600.66;5007796;28;20096;-72
2023/06/19 01:33:26;;;;;;;12.32;11.20;;;;;;;-145.41;100.00;58600.66;5024507;28;20387;-72
2023/06/19 01:35:52;;;;;;;13.15;11.85;;;;;;;-145.41;100.00;58600.66;5024685;28;20045;-71
2023/06/19 01:38:21;;;;;;;13.10;11.77;;;;;;;-145.41;100.00;58600.66;5023043;28;20029;-72
2023/06/19 01:40:49;;;;;;;12.25;10.95;;;;;;;-145.41;100.00;58600.66;5025815;28;20046;-72
2023/06/19 01:43:17;;;;;;;12.20;10.93;;;;;;;-145.41;100.00;58600.66;5025608;28;20140;-72
2023/06/19 01:45:43;;;;;;;12.85;11.55;;;;;;;-145.41;100.00;58600.66;5024818;28;20022;-72
2023/06/19 01:48:08;;;;;;;12.05;10.75;;;;;;;-145.41;100.00;58600.66;5024055;28;20112;-72
2023/06/19 01:50:37;;;;;;;12.30;11.10;;;;;;;-145.41;100.00;58600.66;5004454;28;20038;-73
2023/06/19 01:53:03;;;;;;;13.20;11.90;;;;;;;-145.41;100.00;58600.66;5024271;28;20424;-73
2023/06/19 01:55:28;;;;;;;15.90;14.30;;;;;;;-145.41;100.00;58600.66;5026687;28;20045;-71
2023/06/19 01:57:53;;;;;;;22.02;19.75;;;;;;;-145.41;100.00;58600.66;5012906;28;20099;-73
2023/06/19 02:00:19;;;;;;;17.63;15.93;;;;;;;-145.41;100.00;58600.66;5003605;28;20036;-72
2023/06/19 02:02:44;;;;;;;19.50;17.50;;;;;;;-145.41;100.00;58600.66;5027103;28;20497;-72
2023/06/19 02:05:10;;;;;;;23.38;21.08;;;;;;;-145.41;100.00;58600.66;5005758;28;20033;-72
2023/06/19 02:07:35;;;;;;;21.73;19.52;;;;;;;-145.41;100.00;58600.66;5012776;28;20061;-73
2023/06/19 02:10:01;;;;;;;20.73;18.63;;;;;;;-145.41;100.00;58600.66;5025482;28;20037;-72
2023/06/19 02:12:26;;;;;;;21.85;19.55;;;;;;;-145.41;100.00;58600.66;5006259;28;20056;-73
2023/06/19 02:14:52;;;;;;;27.13;24.45;;;;;;;-145.41;100.00;58600.66;5026128;28;20034;-72
2023/06/19 02:17:17;;;;;;;25.40;22.83;;;;;;;-145.41;100.00;58600.66;5006894;28;20064;-72
2023/06/19 02:19:42;;;;;;;27.25;24.50;;;;;;;-145.41;100.00;58600.66;5008786;28;20030;-72
2023/06/19 02:22:08;;;;;;;25.63;22.63;;;;;;;-145.41;100.00;58600.66;5014857;28;20167;-73
2023/06/19 02:24:33;;;;;;;25.58;22.98;;;;;;;-145.41;100.00;58600.66;5033539;28;20026;-73
2023/06/19 02:26:59;;;;;;;25.67;23.17;;;;;;;-145.41;100.00;58600.66;5015892;28;20389;-71
2023/06/19 02:29:24;;;;;;;26.52;23.92;;;;;;;-145.41;100.00;58600.66;5023161;28;20033;-73
2023/06/19 02:31:50;;;;;;;26.23;23.63;;;;;;;-145.41;100.00;58600.66;5009280;28;20121;-72
2023/06/19 02:34:16;;;;;;;26.10;23.38;;;;;;;-145.41;100.00;58600.66;5026123;28;20383;-73
2023/06/19 02:36:41;;;;;;;24.08;21.65;;;;;;;-145.41;100.00;58600.66;5033141;28;20053;-72
2023/06/19 02:39:08;;;;;;;26.83;24.02;;;;;;;-145.41;100.00;58600.66;5010310;28;20033;-72
2023/06/19 02:41:34;;;;;;;21.35;19.25;;;;;;;-145.41;100.00;58600.66;5029276;28;20108;-72
2023/06/19 02:44:02;;;;;;;17.33;15.68;;;;;;;-145.41;100.00;58600.66;5030910;28;20033;-72
2023/06/19 02:46:27;;;;;;;19.83;17.83;;;;;;;-145.41;100.00;58600.66;5033107;28;20039;-72
2023/06/19 02:48:53;;;;;;;18.50;16.75;;;;;;;-145.41;100.00;58600.66;5032806;28;20037;-72
2023/06/19 02:51:18;;;;;;;20.95;18.75;;;;;;;-145.41;100.00;58600.66;5033005;28;20074;-73
2023/06/19 02:53:43;;;;;;;19.80;17.90;;;;;;;-145.41;100.00;58600.66;5033240;28;20060;-72
2023/06/19 02:56:11;;;;;;;16.45;14.85;;;;;;;-145.41;100.00;58600.66;5032016;28;20033;-72
2023/06/19 02:58:37;;;;;;;17.45;15.73;;;;;;;-145.41;100.00;58600.66;5032355;28;20021;-72
2023/06/19 03:01:03;;;;;;;19.75;17.83;;;;;;;-145.41;100.00;58600.66;5032694;28;20035;-72
2023/06/19 03:03:29;;;;;;;19.30;17.05;;;;;;;-145.41;100.00;58600.66;5033092;28;20029;-73
2023/06/19 03:05:55;;;;;;;22.92;20.63;;;;;;;-145.41;100.00;58600.66;5033175;28;20048;-73
2023/06/19 03:08:20;;;;;;;25.73;23.20;;;;;;;-145.41;100.00;58600.66;5014901;28;20105;-72
2023/06/19 03:10:45;;;;;;;21.88;19.65;;;;;;;-145.41;100.00;58600.66;5031882;28;20419;-72
2023/06/19 03:13:12;;;;;;;18.88;16.92;;;;;;;-145.41;100.00;58600.66;5013975;28;20120;-73
2023/06/19 03:15:38;;;;;;;26.58;24.00;;;;;;;-145.41;100.00;58600.66;4999102;28;20037;-72
2023/06/19 03:18:06;;;;;;;25.02;22.35;;;;;;;-145.41;100.00;58600.66;5014988;28;20021;-73
2023/06/19 03:20:33;;;;;;;23.73;20.77;;;;;;;-145.41;100.00;58600.66;5014248;28;20045;-73
2023/06/19 03:22:59;;;;;;;20.10;18.25;;;;;;;-145.41;100.00;58600.66;5015326;28;20124;-72
2023/06/19 03:25:26;;;;;;;25.20;22.63;;;;;;;-145.41;100.00;58600.66;5012519;28;20029;-72
2023/06/19 03:27:52;;;;;;;22.90;20.70;;;;;;;-145.41;100.00;58600.66;5015024;28;20039;-72
2023/06/19 03:30:18;;;;;;;17.33;15.70;;;;;;;-145.41;100.00;58600.66;5010520;28;20025;-72
2023/06/19 03:32:45;;;;;;;16.17;14.52;;;;;;;-145.41;100.00;58600.66;5014548;28;20036;-72
2023/06/19 03:35:20;;;;;;;14.65;13.15;;;;;;;-145.41;100.00;58600.66;5011456;28;20405;-72
2023/06/19 03:37:46;;;;;;;15.88;14.35;;;;;;;-145.41;100.00;58600.66;5016925;28;20033;-72
2023/06/19 03:40:13;;;;;;;19.05;17.20;;;;;;;-145.41;100.00;58600.66;5014138;28;20033;-73
2023/06/19 03:42:41;;;;;;;20.40;17.42;;;;;;;-145.41;100.00;58600.66;5030243;28;20116;-72
2023/06/19 03:45:07;;;;;;;19.52;17.63;;;;;;;-145.41;100.00;58600.66;5014721;28;20030;-72
2023/06/19 03:47:33;;;;;;;22.75;20.65;;;;;;;-145.41;100.00;58600.66;5013251;28;20029;-73
2023/06/19 03:49:59;;;;;;;22.90;20.70;;;;;;;-145.41;100.00;58600.66;5013371;28;20030;-72
2023/06/19 03:52:24;;;;;;;24.67;22.30;;;;;;;-145.41;100.00;58600.66;5011117;28;20467;-72
2023/06/19 03:54:50;;;;;;;24.83;22.48;;;;;;;-145.41;100.00;58600.66;5014299;28;20471;-73
2023/06/19 03:57:15;;;;;;;24.80;22.33;;;;;;;-145.41;100.00;58600.66;5014059;28;20381;-73
2023/06/19 03:59:40;;;;;;;25.67;22.98;;;;;;;-145.41;100.00;58600.66;5013708;28;20492;-73
2023/06/19 04:02:08;;;;;;;27.60;25.00;;;;;;;-145.41;100.00;58600.66;5025825;22;20180;-75
2023/06/19 04:04:33;;;;;;;27.35;24.75;;;;;;;-145.41;100.00;58600.66;5030231;28;20120;-74
2023/06/19 04:07:01;;;;;;;25.00;22.50;;;;;;;-145.41;100.00;58600.66;5029403;28;20034;-74
2023/06/19 04:09:26;;;;;;;25.40;22.02;;;;;;;-145.41;100.00;58600.66;5024139;28;20033;-74
2023/06/19 04:11:53;;;;;;;20.63;18.60;;;;;;;-145.41;100.00;58600.66;5012735;28;20504;-75
2023/06/19 04:14:18;;;;;;;20.88;18.88;;;;;;;-145.41;100.00;58600.66;5013832;28;20032;-75
2023/06/19 04:16:43;;;;;;;20.35;18.17;;;;;;;-145.41;100.00;58600.66;5031792;28;20365;-74
2023/06/19 04:19:09;;;;;;;18.98;17.10;;;;;;;-145.41;100.00;58600.66;5025106;28;20392;-75
2023/06/19 04:21:34;;;;;;;17.95;15.75;;;;;;;-145.41;100.00;58600.66;5014133;28;20480;-75
2023/06/19 04:23:59;;;;;;;17.10;15.40;;;;;;;-145.41;100.00;58600.66;5030505;28;20145;-75
2023/06/19 04:26:25;;;;;;;22.20;20.10;;;;;;;-145.41;100.00;58600.66;5031786;28;20029;-74
2023/06/19 04:28:50;;;;;;;22.98;20.73;;;;;;;-145.41;100.00;58600.66;5030750;28;20044;-75
2023/06/19 04:31:18;;;;;;;22.92;20.58;;;;;;;-145.41;100.00;58600.66;5031630;28;20045;-75
2023/06/19 04:33:45;;;;;;;28.20;25.35;;;;;;;-145.41;100.00;58600.66;5029110;28;20053;-75
2023/06/19 04:36:10;;;;;;;29.10;26.20;;;;;;;-145.41;100.00;58600.66;5028179;28;20477;-75
2023/06/19 04:38:35;;;;;;;28.02;25.13;;;;;;;-145.41;100.00;58600.66;5029828;28;20087;-75
2023/06/19 04:41:01;;;;;;;28.27;25.27;;;;;;;-145.41;100.00;58600.66;5030399;28;20105;-75
2023/06/19 04:43:26;;;;;;;28.17;25.35;;;;;;;-145.41;100.00;58600.66;5030167;28;20052;-75
2023/06/19 04:45:51;;;;;;;23.10;20.90;;;;;;;-145.41;100.00;58600.66;5029380;28;20033;-75
2023/06/19 04:48:17;;;;;;;25.75;23.15;;;;;;;-145.41;100.00;58600.66;5029842;28;20036;-75
2023/06/19 04:50:42;;;;;;;22.98;20.83;;;;;;;-145.41;100.00;58600.66;5029625;28;20041;-75
2023/06/19 04:53:07;;;;;;;23.27;21.08;;;;;;;-145.41;100.00;58600.66;5028813;28;20194;-75
2023/06/19 04:55:33;;;;;;;21.05;19.13;;;;;;;-145.41;100.00;58600.66;5028676;28;20041;-74
2023/06/19 04:57:58;;;;;;;18.85;16.85;;;;;;;-145.41;100.00;58600.66;5030606;28;20036;-75
2023/06/19 05:00:24;;;;;;;18.15;16.35;;;;;;;-145.41;100.00;58600.66;5030022;28;20038;-75
2023/06/19 05:02:50;;;;;;;16.55;14.98;;;;;;;-145.41;100.00;58600.66;5029936;28;20447;-75
2023/06/19 05:05:16;;;;;;;17.17;15.48;;;;;;;-145.41;100.00;58600.66;5031185;28;20052;-75
2023/06/19 05:07:42;;;;;;;21.40;19.23;;;;;;;-145.41;100.00;58600.66;5030545;28;20083;-74
2023/06/19 05:10:08;;;;;;;17.63;15.88;;;;;;;-145.41;100.00;58600.66;5030330;28;20434;-75
2023/06/19 05:12:34;;;;;;;15.93;14.32;;;;;;;-145.41;100.00;58600.66;5030881;28;20037;-75
2023/06/19 05:15:00;;;;;;;17.27;15.43;;;;;;;-145.41;100.00;58600.66;5030640;28;20033;-75
2023/06/19 05:17:25;;;;;;;17.60;15.90;;;;;;;-145.41;100.00;58600.66;5030729;28;20080;-75
2023/06/19 05:19:50;;;;;;;19.77;17.85;;;;;;;-145.41;100.00;58600.66;5030222;28;20044;-75
2023/06/19 05:22:18;;;;;;;19.95;18.05;;;;;;;-145.41;100.00;58600.66;5026858;28;20040;-75
2023/06/19 05:24:44;;;;;;;22.00;19.80;;;;;;;-145.41;100.00;58600.66;5028600;28;20489;-75
2023/06/19 05:27:10;;;;;;;21.65;19.65;;;;;;;-145.41;100.00;58600.66;5028806;28;20120;-75
2023/06/19 05:29:35;;;;;;;21.45;19.45;;;;;;;-145.41;100.00;58600.66;5029263;28;20461;-74
2023/06/19 05:32:01;;;;;;;23.30;21.02;;;;;;;-145.41;100.00;58600.66;5030729;28;20036;-74
2023/06/19 05:34:26;;;;;;;18.38;16.70;;;;;;;-145.41;100.00;58600.66;5030547;28;20574;-75
2023/06/19 05:36:51;;;;;;;19.27;17.42;;;;;;;-145.41;100.00;58600.66;5030482;28;20075;-75
2023/06/19 05:39:18;;;;;;;24.73;18.63;;;;;;;-145.41;100.00;58600.66;5030010;28;20030;-75
2023/06/19 05:41:45;;;;;;;21.58;19.42;;;;;;;-145.41;100.00;58600.66;5029914;28;20060;-75
2023/06/19 05:44:15;;;;;;;21.65;19.60;;;;;;;-145.41;100.00;58600.66;5030689;28;20038;-75
2023/06/19 05:46:41;;;;;;;24.02;21.63;;;;;;;-145.41;100.00;58600.66;5030439;28;20029;-74
2023/06/19 05:49:06;;;;;;;26.67;23.73;;;;;;;-145.41;100.00;58600.66;5029746;28;20041;-75
2023/06/19 05:51:32;;;;;;;22.38;20.17;;;;;;;-145.41;100.00;58600.66;5029977;28;20046;-75
2023/06/19 05:54:03;;;;;;;21.60;19.55;;;;;;;-145.41;100.00;58600.66;5028502;28;20037;-75
2023/06/19 05:56:28;;;;;;;20.57;18.57;;;;;;;-145.41;100.00;58600.66;5034627;28;20040;-75
2023/06/19 05:58:54;;;;;;;21.70;19.60;;;;;;;-145.41;100.00;58600.66;5033341;28;20037;-75
2023/06/19 06:01:19;;;;;;;21.67;19.60;;;;;;;-145.41;100.00;58600.66;5034741;28;20040;-74
2023/06/19 06:03:45;;;;;;;25.63;22.92;;;;;;;-145.41;100.00;58600.66;5034039;28;20041;-75
2023/06/19 06:06:10;;;;;;;27.02;24.42;;;;;;;-145.41;100.00;58600.66;5033286;28;20040;-75
2023/06/19 06:08:36;;;;;;;23.30;21.02;;;;;;;-145.41;100.00;58600.66;5030403;28;20038;-75
2023/06/19 06:11:02;;;;;;;17.38;15.63;;;;;;;-145.41;100.00;58600.66;5032366;28;20116;-75
2023/06/19 06:13:27;;;;;;;20.48;18.45;;;;;;;-145.41;100.00;58600.66;5031279;28;20179;-75
2023/06/19 06:15:53;;;;;;;25.90;23.27;;;;;;;-145.41;100.00;58600.66;5031930;28;20092;-75
2023/06/19 06:18:18;;;;;;;18.83;17.00;;;;;;;-145.41;100.00;58600.66;5031893;28;20048;-75
2023/06/19 06:20:44;;;;;;;21.63;19.55;;;;;;;-145.41;100.00;58600.66;5032228;28;20112;-75
2023/06/19 06:23:09;;;;;;;19.50;17.45;;;;;;;-145.41;100.00;58600.66;5032042;28;20500;-75
2023/06/19 06:25:34;;;;;;;24.02;21.80;;;;;;;-145.41;100.00;58600.66;5030255;28;20040;-75
2023/06/19 06:28:00;;;;;;;25.33;22.80;;;;;;;-145.41;100.00;58600.66;5032182;28;20037;-75
2023/06/19 06:30:27;;;;;;;21.80;19.63;;;;;;;-145.41;100.00;58600.66;5033137;28;20071;-75
2023/06/19 06:32:52;;;;;;;15.10;13.70;;;;;;;-145.41;100.00;58600.66;5033654;28;20447;-75
2023/06/19 06:35:18;;;;;;;15.75;14.23;;;;;;;-145.41;100.00;58600.66;5034044;28;20033;-74
2023/06/19 06:37:45;;;;;;;16.83;15.18;;;;;;;-145.41;100.00;58600.66;5032708;28;20079;-75
2023/06/19 06:40:11;;;;;;;14.82;13.43;;;;;;;-145.41;100.00;58600.66;5032770;28;20032;-74
2023/06/19 06:42:37;;;;;;;13.82;12.50;;;;;;;-145.41;100.00;58600.66;5032155;28;20037;-75
2023/06/19 06:45:05;;;;;;;21.48;19.48;;;;;;;-145.41;100.00;58600.66;5031341;28;20565;-75
2023/06/19 06:47:30;;;;;;;16.27;14.80;;;;;;;-145.41;100.00;58600.66;5033643;28;20091;-74
2023/06/19 06:49:56;;;;;;;16.50;15.00;;;;;;;-145.41;100.00;58600.66;5032589;28;20396;-75
2023/06/19 06:52:21;;;;;;;23.45;21.10;;;;;;;-145.41;100.00;58600.66;5031098;28;20045;-75
2023/06/19 06:54:46;;;;;;;18.52;16.75;;;;;;;-145.41;100.00;58600.66;5015488;28;20040;-75
2023/06/19 06:57:12;;;;;;;19.50;17.60;;;;;;;-145.41;100.00;58600.66;5032551;28;20025;-75
2023/06/19 06:59:37;;;;;;;18.88;16.88;;;;;;;-145.41;100.00;58600.66;5032735;28;20037;-75
2023/06/19 07:02:03;;;;;;;21.95;19.75;;;;;;;-145.41;100.00;58600.66;5032888;28;20416;-75
2023/06/19 07:04:28;;;;;;;21.08;19.15;;;;;;;-145.41;100.00;58600.66;5032786;28;20411;-75
2023/06/19 07:06:53;;;;;;;23.48;21.35;;;;;;;-145.41;100.00;58600.66;5033002;28;20037;-76
2023/06/19 07:09:21;;;;;;;22.08;20.02;;;;;;;-145.41;100.00;58600.66;5032424;28;20041;-75
2023/06/19 07:11:46;;;;;;;17.15;15.55;;;;;;;-145.41;100.00;58600.66;5032896;28;20041;-75
2023/06/19 07:14:11;;;;;;;21.65;19.48;;;;;;;-145.41;100.00;58600.66;5032264;28;20033;-75
2023/06/19 07:16:37;;;;;;;19.48;17.67;;;;;;;-145.41;100.00;58600.66;5032545;28;20057;-75
2023/06/19 07:19:02;;;;;;;24.95;22.52;;;;;;;-145.41;100.00;58600.66;5032391;28;20123;-75
2023/06/19 07:21:29;;;;;;;24.98;22.67;;;;;;;-145.41;100.00;58600.66;5032346;28;20067;-75
2023/06/19 07:23:54;;;;;;;18.05;16.35;;;;;;;-145.41;100.00;58600.66;5031937;28;20041;-75
2023/06/19 07:26:19;;;;;;;21.70;19.55;;;;;;;-145.41;100.00;58600.66;5032866;28;20040;-76
2023/06/19 07:28:45;;;;;;;22.75;20.52;;;;;;;-145.41;100.00;58600.66;5032024;28;20029;-75
2023/06/19 07:31:10;;;;;;;20.00;18.20;;;;;;;-145.41;100.00;58600.66;5031892;28;20041;-75
2023/06/19 07:33:35;;;;;;;22.02;19.95;;;;;;;-145.41;100.00;58600.66;5029221;28;20038;-75
2023/06/19 07:36:02;;;;;;;23.38;21.23;;;;;;;-145.41;100.00;58600.66;5032680;28;20033;-75
2023/06/19 07:38:28;;;;;;;23.67;21.58;;;;;;;-145.41;100.00;58600.66;5032156;28;20033;-75
2023/06/19 07:40:53;;;;;;;21.10;19.17;;;;;;;-145.41;100.00;58600.66;5031833;28;20427;-75
2023/06/19 07:43:18;;;;;;;21.63;19.52;;;;;;;-145.41;100.00;58600.66;5032591;28;20033;-75
2023/06/19 07:45:44;;;;;;;18.95;17.23;;;;;;;-145.41;100.00;58600.66;5032323;28;20108;-75
2023/06/19 07:48:09;;;;;;;15.43;14.00;;;;;;;-145.41;100.00;58600.66;5031930;28;20040;-75
2023/06/19 07:50:34;;;;;;;20.20;18.27;;;;;;;-145.41;100.00;58600.66;5030908;28;20061;-75
2023/06/19 07:53:01;;;;;;;20.95;19.05;;;;;;;-145.41;100.00;58600.66;5031564;28;20040;-76
2023/06/19 07:55:28;;;;;;;21.77;19.73;;;;;;;-145.41;100.00;58600.66;5031877;28;20029;-75
2023/06/19 07:57:56;;;;;;;19.83;17.92;;;;;;;-145.41;100.00;58600.66;5031816;28;20040;-75
2023/06/19 08:00:22;;;;;;;21.33;19.27;;;;;;;-145.41;100.00;58600.66;5031349;28;20048;-76
2023/06/19 08:02:47;;;;;;;24.17;21.98;;;;;;;-145.41;100.00;58600.66;5032114;28;20496;-75
2023/06/19 08:05:13;;;;;;;23.63;21.20;;;;;;;-145.41;100.00;58600.66;5031514;28;20037;-76
2023/06/19 08:07:38;;;;;;;16.20;14.57;;;;;;;-145.41;100.00;58600.66;5032117;28;20034;-75
2023/06/19 08:10:04;;;;;;;13.95;12.60;;;;;;;-145.41;100.00;58600.66;5031119;28;20108;-75
2023/06/19 08:12:30;;;;;;;17.33;15.73;;;;;;;-145.41;100.00;58600.66;5031395;28;20041;-75
2023/06/19 08:14:55;;;;;;;18.88;17.10;;;;;;;-145.41;100.00;58600.66;5031972;28;20045;-76
2023/06/19 08:17:21;;;;;;;18.30;16.60;;;;;;;-145.41;100.00;58600.66;5025283;28;20033;-75
2023/06/19 08:19:47;;;;;;;19.48;17.67;;;;;;;-145.41;100.00;58600.66;5030953;28;20518;-76
2023/06/19 08:22:12;;;;;;;18.33;16.63;;;;;;;-145.41;100.00;58600.66;5031292;28;20036;-75
2023/06/19 08:24:39;;;;;;;15.15;13.55;;;;;;;-145.41;100.00;58600.66;5031626;28;20029;-75
2023/06/19 08:27:05;;;;;;;11.07;9.93;;;;;;;-145.41;100.00;58600.66;5031633;28;20044;-76
2023/06/19 08:29:30;;;;;;;17.83;16.13;;;;;;;-145.41;100.00;58600.66;5031303;28;20029;-75
2023/06/19 08:31:55;;;;;;;13.00;11.90;;;;;;;-145.41;100.00;58600.66;5028516;28;20080;-76
2023/06/19 08:34:21;;;;;;;16.08;14.68;;;;;;;-145.41;100.00;58600.66;5031285;28;20080;-76
2023/06/19 08:36:46;;;;;;;15.23;13.73;;;;;;;-145.41;100.00;58600.66;5029880;28;20188;-76
2023/06/19 08:39:12;;;;;;;9.52;8.52;;;;;;;-145.41;100.00;58600.66;5030355;28;20112;-75
2023/06/19 08:41:38;;;;;;;17.67;15.98;;;;;;;-145.41;100.00;58600.66;5031043;28;20056;-75
2023/06/19 08:44:05;;;;;;;17.35;15.68;;;;;;;-145.41;100.00;58600.66;5031548;28;20037;-76
2023/06/19 08:46:30;;;;;;;15.48;14.07;;;;;;;-145.41;100.00;58600.66;5028691;28;20047;-75
2023/06/19 08:48:56;;;;;;;15.00;13.57;;;;;;;-145.41;100.00;58600.66;5030335;28;20030;-76
2023/06/19 08:51:21;;;;;;;13.43;11.48;;;;;;;-145.41;100.00;58600.66;5031048;28;20041;-75
2023/06/19 08:53:52;;;;;;;12.90;10.07;;;;;;;-145.41;100.00;58600.66;5028733;28;20033;-75
2023/06/19 08:56:17;;;;;;;10.65;9.60;;;;;;;-145.41;100.00;58600.66;5028921;28;20030;-76
2023/06/19 08:58:43;;;;;;;12.57;11.38;;;;;;;-145.41;100.00;58600.66;5027831;28;20033;-76
2023/06/19 09:01:08;;;;;;;13.45;12.20;;;;;;;-145.41;100.00;58600.66;5030323;28;20033;-75
2023/06/19 09:03:34;;;;;;;9.60;8.70;;;;;;;-145.41;100.00;58600.66;5030807;28;20060;-75
2023/06/19 09:06:04;;;;;;;12.68;11.13;;;;;;;-145.41;100.00;58600.66;5030816;28;20033;-75
2023/06/19 09:08:30;;;;;;;20.90;18.70;;;;;;;-145.41;100.00;58600.66;5012086;28;20026;-75
2023/06/19 09:11:04;;;;;;;16.33;14.75;;;;;;;-145.41;100.00;58600.66;5012324;28;20504;-75
2023/06/19 09:13:31;;;;;;;10.63;9.57;;;;;;;-145.41;100.00;58600.66;5031024;28;20040;-76
2023/06/19 09:16:03;;;;;;;9.20;8.15;;;;;;;-145.41;100.00;58600.66;5024940;28;20034;-75
2023/06/19 09:18:41;;;;;;;9.27;7.70;;;;;;;-145.41;100.00;58600.66;5030681;28;20029;-76
2023/06/19 09:21:18;;;;;;;7.80;7.10;;;;;;;-145.41;100.00;58600.66;5030684;28;20651;-76
2023/06/19 09:23:44;;;;;;;7.82;6.65;;;;;;;-145.41;100.00;58600.66;5027433;28;20037;-75
2023/06/19 09:26:10;;;;;;;9.13;7.20;;;;;;;-145.41;100.00;58600.66;5013149;28;20025;-76
2023/06/19 09:28:41;;;;;;;8.32;7.43;;;;;;;-145.41;100.00;58600.66;5028753;28;20389;-75
2023/06/19 09:31:06;;;;;;;10.55;9.45;;;;;;;-145.41;100.00;58600.66;5027643;28;20041;-75
2023/06/19 09:33:34;;;;;;;16.75;15.15;;;;;;;-145.41;100.00;58600.66;5028841;28;20449;-75
2023/06/19 09:36:01;;;;;;;16.83;14.90;;;;;;;-145.41;100.00;58600.66;5030347;28;20037;-75
2023/06/19 09:38:29;;;;;;;16.65;14.95;;;;;;;-145.41;100.00;58600.66;5029398;28;20053;-75
2023/06/19 09:40:58;;;;;;;17.35;15.55;;;;;;;-145.41;100.00;58600.66;5026734;28;20034;-75
2023/06/19 09:43:36;;;;;;;17.23;15.63;;;;;;;-145.41;100.00;58600.66;5030369;28;20381;-75
2023/06/19 09:46:03;;;;;;;10.77;9.73;;;;;;;-145.41;100.00;58600.66;5029751;28;20040;-76
2023/06/19 09:48:30;;;;;;;9.20;8.13;;;;;;;-145.41;100.00;58600.66;5028469;28;20034;-76
2023/06/19 09:51:11;;;;;;;12.75;11.52;;;;;;;-145.41;100.00;58600.66;5030011;28;20045;-75
2023/06/19 09:53:37;;;;;;;14.43;13.07;;;;;;;-145.41;100.00;58600.66;5026373;28;20059;-75
2023/06/19 09:56:03;;;;;;;12.77;7.75;;;;;;;-145.41;100.00;58600.66;5030615;28;20531;-76
2023/06/19 09:58:30;;;;;;;9.30;8.10;;;;;;;-145.41;100.00;58600.66;5030295;28;20028;-75
2023/06/19 10:00:55;;;;;;;9.40;7.50;;;;;;;-145.41;100.00;58600.66;5026189;28;20095;-75
2023/06/19 10:03:29;;;;;;;12.00;7.30;;;;;;;-145.41;100.00;58600.66;5089425;23;20033;-75
2023/06/19 10:05:59;;;;;;;9.27;7.65;;;;;;;-145.41;100.00;58600.66;5034854;28;20403;-75
2023/06/19 10:08:30;;;;;;;9.73;6.97;;;;;;;-145.41;100.00;58600.66;5016464;28;20052;-75
2023/06/19 10:10:57;;;;;;;9.38;7.05;;;;;;;-145.41;100.00;58600.66;5027114;28;20448;-75
2023/06/19 10:13:32;;;;;;;11.75;10.52;;;;;;;-145.41;100.00;58600.66;5035216;28;20037;-75
2023/06/19 10:15:58;;;;;;;8.27;7.47;;;;;;;-145.41;100.00;58600.66;5039111;28;20511;-75
2023/06/19 10:18:25;;;;;;;7.95;7.15;;;;;;;-145.41;100.00;58600.66;5033717;28;20063;-75
2023/06/19 10:20:50;;;;;;;9.63;6.05;;;;;;;-145.41;100.00;58600.66;5028152;28;20095;-75
2023/06/19 10:23:18;;;;;;;7.82;7.03;;;;;;;-145.41;100.00;58600.66;5040963;28;20511;-75
2023/06/19 10:25:54;;;;;;;8.43;7.18;;;;;;;-145.41;100.00;58600.66;5041263;28;20402;-75
2023/06/19 10:28:31;;;;;;;11.20;10.10;;;;;;;-145.41;100.00;58600.66;5036301;28;20040;-75
2023/06/19 10:31:08;;;;;;;8.63;7.68;;;;;;;-145.41;100.00;58600.66;5037511;28;20041;-75
2023/06/19 10:33:36;;;;;;;7.32;6.63;;;;;;;-145.41;100.00;58600.66;5031494;28;20068;-75
2023/06/19 10:36:14;;;;;;;6.45;5.70;;;;;;;-145.41;100.00;58600.66;5020770;28;20034;-75
2023/06/19 10:38:39;;;;;;;8.80;7.90;;;;;;;-145.41;100.00;58600.66;5033759;28;20104;-75
2023/06/19 10:41:05;;;;;;;8.77;7.90;;;;;;;-145.41;100.00;58600.66;5037634;28;20115;-75
2023/06/19 10:43:32;;;;;;;8.68;7.50;;;;;;;-145.41;100.00;58600.66;5037590;28;20046;-75
2023/06/19 10:45:58;;;;;;;8.73;7.93;;;;;;;-145.41;100.00;58600.66;5044499;28;20037;-75
2023/06/19 10:48:24;;;;;;;12.38;11.18;;;;;;;-145.41;100.00;58600.66;5021738;28;20108;-75
2023/06/19 10:50:51;;;;;;;12.82;11.52;;;;;;;-145.41;100.00;58600.66;5044989;28;20126;-75
2023/06/19 10:53:24;;;;;;;7.60;6.82;;;;;;;-145.41;100.00;58600.66;5024901;28;20549;-75